Time;durP1;ratioP1;P1;durP2;ratioP2;P2;SDS_P1;SDS_P2;PMS_P1;PMS_P2;Temp;Humidity;BMP_temperature;BMP_pressure;BME280_temperature;BME280_humidity;BME280_pressure;Samples;Min_cycle;Max_cycle;Signal;HPM_P1;HPM_P2
2023/06/22 00:00:55;;;;;;;9.80;8.87;;;;;;;;;;5131037;28;20857;-56
2023/06/22 00:03:24;;;;;;;12.83;9.53;;;22.50;99.90;;;;;;5129893;28;20484;-54
2023/06/22 00:05:51;;;;;;;9.90;8.60;;;22.60;99.90;;;;;;5127133;28;20465;-55
2023/06/22 00:08:20;;;;;;;12.73;9.43;;;22.50;99.90;;;;;;5129478;28;20472;-51
2023/06/22 00:10:50;;;;;;;10.20;9.00;;;22.60;99.90;;;;;;5128714;28;20467;-56
2023/06/22 00:13:17;;;;;;;11.63;8.70;;;;;;;;;;5130400;28;20472;-55
2023/06/22 00:15:45;;;;;;;11.07;8.40;;;22.50;99.90;;;;;;5130451;28;20456;-56
2023/06/22 00:18:13;;;;;;;11.23;9.63;;;;;;;;;;5127028;28;20468;-57
2023/06/22 00:20:40;;;;;;;12.37;8.83;;;22.20;99.90;;;;;;5127067;28;20451;-53
2023/06/22 00:23:08;;;;;;;10.20;9.10;;;22.30;99.90;;;;;;5128543;28;20525;-55
2023/06/22 00:25:35;;;;;;;10.47;9.00;;;22.20;99.90;;;;;;5137767;27;20440;-54
2023/06/22 00:28:04;;;;;;;10.53;8.07;;;22.30;99.90;;;;;;5149802;27;20474;-53
2023/06/22 00:30:32;;;;;;;12.50;8.10;;;22.20;99.90;;;;;;5149333;27;20440;-56
2023/06/22 00:32:59;;;;;;;10.43;8.20;;;22.00;99.90;;;;;;5155805;27;20423;-56
2023/06/22 00:35:28;;;;;;;10.40;8.57;;;22.40;99.90;;;;;;5150568;27;20479;-55
2023/06/22 00:38:00;;;;;;;11.90;8.37;;;;;;;;;;5149622;27;20458;-54
2023/06/22 00:40:27;;;;;;;10.17;8.70;;;;;;;;;;5147852;27;20546;-56
2023/06/22 00:42:55;;;;;;;11.87;8.47;;;21.80;99.90;;;;;;5146802;27;20519;-56
2023/06/22 00:45:24;;;;;;;11.03;8.33;;;22.10;99.90;;;;;;5147524;27;20455;-55
2023/06/22 00:47:52;;;;;;;12.23;8.70;;;22.00;99.90;;;;;;5149981;27;21089;-55
2023/06/22 00:50:21;;;;;;;8.87;7.83;;;22.00;99.90;;;;;;5154251;27;20464;-54
2023/06/22 00:52:51;;;;;;;8.37;7.40;;;21.90;99.90;;;;;;5150644;27;20432;-56
2023/06/22 00:55:19;;;;;;;8.20;7.40;;;22.10;99.90;;;;;;5145199;27;20482;-56
2023/06/22 00:57:47;;;;;;;12.43;8.70;;;21.90;99.90;;;;;;5131456;28;20476;-56
2023/06/22 01:00:16;;;;;;;10.80;8.33;;;22.00;99.90;;;;;;5129962;28;20770;-53
2023/06/22 01:02:46;;;;;;;11.97;7.80;;;22.00;99.90;;;;;;5127927;28;20496;-55
2023/06/22 01:05:14;;;;;;;13.03;10.20;;;21.70;99.90;;;;;;5129668;28;20913;-55
2023/06/22 01:07:49;;;;;;;9.10;7.80;;;22.00;99.90;;;;;;5136145;28;20484;-56
2023/06/22 01:10:22;;;;;;;8.57;7.67;;;21.80;99.90;;;;;;5134466;28;20427;-56
2023/06/22 01:12:58;;;;;;;11.40;8.90;;;22.40;99.90;;;;;;5132423;28;20507;-56
2023/06/22 01:15:33;;;;;;;9.20;8.10;;;21.80;99.90;;;;;;5127619;28;20460;-56
2023/06/22 01:18:04;;;;;;;12.40;8.10;;;21.90;99.90;;;;;;5129823;28;20448;-51
2023/06/22 01:20:34;;;;;;;11.30;8.80;;;22.10;99.90;;;;;;5129619;28;20431;-52
2023/06/22 01:23:10;;;;;;;8.27;7.17;;;21.90;99.90;;;;;;5128472;28;20520;-52
2023/06/22 01:25:45;;;;;;;9.20;8.00;;;21.70;99.90;;;;;;5138470;27;20502;-52
2023/06/22 01:28:27;;;;;;;10.97;8.27;;;21.70;99.90;;;;;;5150919;27;20427;-53
2023/06/22 01:31:04;;;;;;;11.00;8.17;;;21.80;99.90;;;;;;5151132;27;20512;-52
2023/06/22 01:33:34;;;;;;;11.87;9.10;;;21.70;99.90;;;;;;5148969;27;20415;-53
2023/06/22 01:36:01;;;;;;;11.47;8.83;;;21.90;99.90;;;;;;5150224;27;20550;-53
2023/06/22 01:38:30;;;;;;;10.70;8.70;;;21.30;99.90;;;;;;5153846;27;20490;-53
2023/06/22 01:40:58;;;;;;;15.03;9.43;;;21.70;99.90;;;;;;5156240;27;20447;-54
2023/06/22 01:43:27;;;;;;;12.07;8.87;;;21.40;99.90;;;;;;5157091;27;20472;-53
2023/06/22 01:45:57;;;;;;;11.30;9.10;;;22.30;99.90;;;;;;5153196;27;20915;-54
2023/06/22 01:48:25;;;;;;;14.77;10.17;;;21.80;99.90;;;;;;5149871;27;20443;-53
2023/06/22 01:50:54;;;;;;;10.57;8.77;;;22.10;99.90;;;;;;5157144;27;20452;-54
2023/06/22 01:53:22;;;;;;;10.90;9.43;;;;;;;;;;5149947;27;20531;-56
2023/06/22 01:55:49;;;;;;;13.70;9.97;;;21.60;99.90;;;;;;5140472;27;20444;-56
2023/06/22 01:58:17;;;;;;;15.13;10.40;;;21.70;99.90;;;;;;5128449;28;20484;-56
2023/06/22 02:00:49;;;;;;;12.40;9.33;;;21.60;99.90;;;;;;5126495;28;20448;-56
2023/06/22 02:03:20;;;;;;;11.20;9.60;;;21.90;99.90;;;;;;5126662;28;20991;-56
2023/06/22 02:05:50;;;;;;;15.30;9.80;;;21.80;99.90;;;;;;5129935;28;20500;-53
2023/06/22 02:08:21;;;;;;;11.63;9.70;;;21.70;99.90;;;;;;5129539;28;20464;-57
2023/06/22 02:10:50;;;;;;;12.90;10.70;;;21.80;99.90;;;;;;5129455;28;20532;-56
2023/06/22 02:13:17;;;;;;;16.87;12.30;;;;;;;;;;5130116;28;20441;-57
2023/06/22 02:15:45;;;;;;;13.90;11.00;;;;;;;;;;5127073;28;21003;-56
2023/06/22 02:18:12;;;;;;;12.70;11.13;;;21.10;99.90;;;;;;5128246;28;20512;-53
2023/06/22 02:20:41;;;;;;;15.53;11.00;;;21.90;99.90;;;;;;5133840;28;20511;-51
2023/06/22 02:23:08;;;;;;;16.00;10.57;;;21.70;99.90;;;;;;5129940;28;20429;-52
2023/06/22 02:25:35;;;;;;;14.73;11.20;;;21.80;99.90;;;;;;5126211;28;20500;-51
2023/06/22 02:28:04;;;;;;;14.07;11.00;;;21.70;99.90;;;;;;5127122;28;20436;-49
2023/06/22 02:30:31;;;;;;;14.70;11.17;;;21.70;99.90;;;;;;5134038;28;20456;-50
2023/06/22 02:32:59;;;;;;;12.90;9.97;;;;;;;;;;5135663;28;20448;-50
2023/06/22 02:35:26;;;;;;;15.10;10.70;;;21.70;99.90;;;;;;5129674;28;20455;-52
2023/06/22 02:37:55;;;;;;;11.87;9.40;;;21.80;99.90;;;;;;5120486;28;20528;-52
2023/06/22 02:40:22;;;;;;;13.03;10.50;;;21.40;99.90;;;;;;5129674;28;20436;-52
2023/06/22 02:42:52;;;;;;;20.73;11.30;;;21.60;99.90;;;;;;5135549;28;20525;-54
2023/06/22 02:45:19;;;;;;;12.47;10.67;;;21.60;99.90;;;;;;5131971;28;20492;-55
2023/06/22 02:47:47;;;;;;;12.00;10.20;;;21.50;99.90;;;;;;5134321;28;20528;-50
2023/06/22 02:50:14;;;;;;;14.13;9.80;;;21.60;99.90;;;;;;5135168;28;20456;-52
2023/06/22 02:52:41;;;;;;;12.43;10.87;;;21.60;99.90;;;;;;5133324;28;20448;-53
2023/06/22 02:55:10;;;;;;;12.10;10.40;;;21.60;99.90;;;;;;5131891;28;20460;-53
2023/06/22 02:57:37;;;;;;;13.63;10.63;;;;;;;;;;5134684;28;20460;-54
2023/06/22 03:00:16;;;;;;;13.33;10.17;;;21.80;99.90;;;;;;5134579;28;20444;-56
2023/06/22 03:02:43;;;;;;;11.37;9.73;;;21.60;99.90;;;;;;5133719;28;20436;-54
2023/06/22 03:05:13;;;;;;;16.10;11.33;;;;;;;;;;5133452;28;20875;-55
2023/06/22 03:07:43;;;;;;;12.53;10.37;;;21.70;99.90;;;;;;5131897;28;20444;-54
2023/06/22 03:10:13;;;;;;;12.10;10.67;;;22.10;99.90;;;;;;5134083;28;20459;-52
2023/06/22 03:12:40;;;;;;;14.57;11.60;;;;;;;;;;5132464;28;20452;-55
2023/06/22 03:15:08;;;;;;;18.47;12.07;;;21.80;99.90;;;;;;5139506;28;20432;-56
2023/06/22 03:17:36;;;;;;;12.17;10.80;;;21.90;99.90;;;;;;5138920;28;20464;-51
2023/06/22 03:20:08;;;;;;;21.53;10.03;;;22.00;99.90;;;;;;5133572;28;20512;-56
2023/06/22 03:22:35;;;;;;;13.93;9.90;;;21.70;99.90;;;;;;5132024;28;20420;-54
2023/06/22 03:25:02;;;;;;;13.10;9.93;;;21.60;99.90;;;;;;5134652;27;20542;-56
2023/06/22 03:27:30;;;;;;;12.67;9.70;;;22.10;99.90;;;;;;5159116;27;20845;-55
2023/06/22 03:29:58;;;;;;;14.80;10.53;;;21.60;99.90;;;;;;5155685;27;20467;-56
2023/06/22 03:32:27;;;;;;;10.23;8.90;;;;;;;;;;5152942;27;20467;-57
2023/06/22 03:34:58;;;;;;;11.63;9.50;;;;;;;;;;5151591;27;20489;-56
2023/06/22 03:37:25;;;;;;;11.00;8.37;;;21.60;99.90;;;;;;5151260;27;20416;-55
2023/06/22 03:39:52;;;;;;;12.20;9.50;;;21.60;99.90;;;;;;5152984;27;20487;-58
2023/06/22 03:42:22;;;;;;;11.47;9.43;;;21.50;99.90;;;;;;5159223;27;20428;-56
2023/06/22 03:44:50;;;;;;;11.00;7.90;;;21.70;99.90;;;;;;5159410;27;20452;-56
2023/06/22 03:47:17;;;;;;;11.67;10.00;;;;;;;;;;5158924;27;20451;-53
2023/06/22 03:49:44;;;;;;;15.00;8.90;;;21.70;99.90;;;;;;5153723;27;20535;-57
2023/06/22 03:52:11;;;;;;;9.87;7.90;;;21.50;99.90;;;;;;5150172;27;20530;-57
2023/06/22 03:54:38;;;;;;;12.50;9.53;;;;;;;;;;5153546;27;20450;-56
2023/06/22 03:57:06;;;;;;;10.90;7.83;;;21.60;99.90;;;;;;5130687;28;20979;-55
2023/06/22 03:59:33;;;;;;;13.10;8.10;;;;;;;;;;5130944;28;20436;-56
2023/06/22 04:02:02;;;;;;;13.80;8.47;;;21.40;99.90;;;;;;5128996;28;20455;-53
2023/06/22 04:04:28;;;;;;;11.00;8.00;;;21.40;99.90;;;;;;5132842;28;20452;-54
2023/06/22 04:06:55;;;;;;;10.20;8.40;;;;;;;;;;5130786;28;20491;-53
2023/06/22 04:09:23;;;;;;;11.33;9.57;;;;;;;;;;5129253;28;20476;-55
2023/06/22 04:11:50;;;;;;;11.23;7.33;;;;;;;;;;5132240;28;20440;-57
2023/06/22 04:14:17;;;;;;;10.30;8.07;;;21.50;99.90;;;;;;5136939;28;20480;-56
2023/06/22 04:16:44;;;;;;;11.70;8.37;;;21.30;99.90;;;;;;5138463;28;20453;-56
2023/06/22 04:19:16;;;;;;;11.40;8.77;;;21.40;99.90;;;;;;5138455;28;20448;-55
2023/06/22 04:21:43;;;;;;;9.70;8.07;;;21.60;99.90;;;;;;5138260;28;20424;-56
2023/06/22 04:24:10;;;;;;;9.17;8.23;;;21.50;99.90;;;;;;5138023;28;20480;-57
2023/06/22 04:26:37;;;;;;;10.30;8.67;;;21.50;99.90;;;;;;5137870;28;20486;-58
2023/06/22 04:29:05;;;;;;;13.60;8.50;;;21.30;99.90;;;;;;5138295;28;20440;-52
2023/06/22 04:31:36;;;;;;;9.43;7.20;;;21.60;99.90;;;;;;5135259;28;20485;-57
2023/06/22 04:34:06;;;;;;;9.00;7.77;;;21.50;99.90;;;;;;5132016;28;20449;-58
2023/06/22 04:36:37;;;;;;;12.67;7.27;;;21.60;99.90;;;;;;5138095;28;20476;-54
2023/06/22 04:39:09;;;;;;;9.60;7.33;;;21.60;99.90;;;;;;5137998;28;20437;-57
2023/06/22 04:41:41;;;;;;;9.47;7.37;;;;;;;;;;5137906;28;20429;-56
2023/06/22 04:44:10;;;;;;;13.53;9.57;;;21.30;99.90;;;;;;5132560;28;20474;-56
2023/06/22 04:46:38;;;;;;;11.67;8.50;;;21.80;99.90;;;;;;5130453;28;20440;-57
2023/06/22 04:49:09;;;;;;;7.37;6.63;;;21.90;99.90;;;;;;5130623;28;20453;-56
2023/06/22 04:51:40;;;;;;;9.50;6.80;;;21.80;99.90;;;;;;5134089;28;20451;-57
2023/06/22 04:54:07;;;;;;;9.20;6.90;;;22.10;99.90;;;;;;5131843;28;20456;-56
2023/06/22 04:56:34;;;;;;;9.07;7.03;;;;;;;;;;5136478;28;20457;-54
2023/06/22 04:59:02;;;;;;;9.47;6.67;;;22.20;99.90;;;;;;5133757;28;20551;-54
2023/06/22 05:01:30;;;;;;;9.47;6.60;;;;;;;;;;5131964;28;20485;-57
2023/06/22 05:04:02;;;;;;;8.50;6.27;;;22.30;99.90;;;;;;5135881;28;20444;-55
2023/06/22 05:06:29;;;;;;;9.17;6.87;;;22.80;99.90;;;;;;5132469;28;20535;-55
2023/06/22 05:08:58;;;;;;;8.97;6.80;;;22.60;99.90;;;;;;5130222;28;20495;-57
2023/06/22 05:11:26;;;;;;;11.50;7.77;;;22.40;99.90;;;;;;5127744;28;20544;-54
2023/06/22 05:13:53;;;;;;;8.43;7.40;;;;;;;;;;5126933;28;20988;-57
2023/06/22 05:16:23;;;;;;;8.30;7.47;;;22.70;99.90;;;;;;5136023;28;20514;-57
2023/06/22 05:18:54;;;;;;;8.07;7.27;;;22.90;99.90;;;;;;5131047;28;20444;-57
2023/06/22 05:21:25;;;;;;;8.93;7.27;;;22.50;99.90;;;;;;5130684;28;20435;-55
2023/06/22 05:23:52;;;;;;;12.23;8.20;;;;;;;;;;5129541;28;20459;-56
2023/06/22 05:26:21;;;;;;;9.13;6.00;;;22.80;99.90;;;;;;5130623;28;20512;-56
2023/06/22 05:28:50;;;;;;;9.67;7.20;;;;;;;;;;5129551;28;20449;-54
2023/06/22 05:31:19;;;;;;;6.90;6.20;;;;;;;;;;5130661;28;20456;-57
2023/06/22 05:33:47;;;;;;;7.90;6.83;;;23.00;99.90;;;;;;5128700;28;20473;-56
2023/06/22 05:36:14;;;;;;;7.50;6.47;;;23.00;99.90;;;;;;5130217;28;20468;-57
2023/06/22 05:38:42;;;;;;;14.70;6.53;;;22.80;99.90;;;;;;5129753;28;20488;-56
2023/06/22 05:41:10;;;;;;;7.33;6.37;;;;;;;;;;5130902;28;20452;-57
2023/06/22 05:43:38;;;;;;;10.27;6.97;;;23.30;99.90;;;;;;5134278;28;20432;-53
2023/06/22 05:46:08;;;;;;;7.93;6.87;;;23.50;99.90;;;;;;5135612;28;20476;-54
2023/06/22 05:48:35;;;;;;;7.03;5.30;;;;;;;;;;5130311;28;20440;-57
2023/06/22 05:51:02;;;;;;;9.47;6.27;;;;;;;;;;5134367;28;20480;-56
2023/06/22 05:53:29;;;;;;;8.00;6.17;;;;;;;;;;5131192;28;20495;-58
2023/06/22 05:55:56;;;;;;;5.87;5.00;;;23.70;99.90;;;;;;5130785;28;20461;-57
2023/06/22 05:58:23;;;;;;;9.77;6.10;;;23.30;99.90;;;;;;5132448;28;20444;-54
2023/06/22 06:00:51;;;;;;;7.63;5.63;;;23.60;99.90;;;;;;5135652;28;20436;-51
2023/06/22 06:03:18;;;;;;;18.60;6.50;;;23.90;99.90;;;;;;5130126;28;20516;-56
2023/06/22 06:05:46;;;;;;;7.40;6.43;;;;;;;;;;5133515;28;20496;-54
2023/06/22 06:08:13;;;;;;;8.00;6.83;;;;;;;;;;5128806;28;20524;-56
2023/06/22 06:10:40;;;;;;;9.77;6.77;;;23.90;99.90;;;;;;5126072;28;20472;-55
2023/06/22 06:13:08;;;;;;;6.93;6.00;;;23.70;99.90;;;;;;5126982;28;20561;-56
2023/06/22 06:15:35;;;;;;;8.20;6.30;;;23.40;99.90;;;;;;5128939;28;21139;-58
2023/06/22 06:18:04;;;;;;;7.17;6.33;;;23.70;99.90;;;;;;5133528;28;20460;-56
2023/06/22 06:20:32;;;;;;;9.10;5.77;;;23.60;99.90;;;;;;5130255;28;20480;-55
2023/06/22 06:22:59;;;;;;;6.87;6.00;;;23.90;99.90;;;;;;5127512;28;20464;-55
2023/06/22 06:25:26;;;;;;;7.37;4.80;;;23.90;99.90;;;;;;5127202;28;20567;-55
2023/06/22 06:27:54;;;;;;;4.80;4.40;;;24.30;99.90;;;;;;5128421;28;20569;-55
2023/06/22 06:30:21;;;;;;;7.40;5.30;;;24.00;99.90;;;;;;5128318;28;20653;-54
2023/06/22 06:32:48;;;;;;;8.30;5.60;;;24.40;99.90;;;;;;5123192;28;20440;-56
2023/06/22 06:35:17;;;;;;;6.37;5.20;;;24.20;99.90;;;;;;5125938;28;20508;-55
2023/06/22 06:37:45;;;;;;;6.20;5.60;;;24.50;99.90;;;;;;5128197;28;20489;-56
2023/06/22 06:40:14;;;;;;;5.67;4.80;;;24.40;99.90;;;;;;5127841;28;20512;-53
2023/06/22 06:42:44;;;;;;;6.53;5.30;;;24.60;99.90;;;;;;5127916;28;20524;-53
2023/06/22 06:45:12;;;;;;;5.43;4.70;;;24.70;99.90;;;;;;5126066;28;20480;-57
2023/06/22 06:47:39;;;;;;;5.50;5.00;;;24.70;99.90;;;;;;5128440;28;20836;-52
2023/06/22 06:50:07;;;;;;;8.00;4.83;;;24.90;99.90;;;;;;5134931;28;20437;-56
2023/06/22 06:52:36;;;;;;;5.67;5.17;;;25.30;99.90;;;;;;5132442;28;20495;-51
2023/06/22 06:55:04;;;;;;;5.43;4.40;;;;;;;;;;5137033;28;20453;-56
2023/06/22 06:57:32;;;;;;;6.80;4.83;;;;;;;;;;5128979;28;20451;-56
2023/06/22 06:59:59;;;;;;;5.77;5.00;;;25.80;99.90;;;;;;5134340;28;20912;-56
2023/06/22 07:02:27;;;;;;;6.20;4.10;;;25.80;99.90;;;;;;5140288;28;20455;-56
2023/06/22 07:04:56;;;;;;;5.80;4.97;;;25.60;99.90;;;;;;5142571;28;20483;-55
2023/06/22 07:07:22;;;;;;;5.53;4.30;;;25.90;99.90;;;;;;5141914;28;20900;-57
2023/06/22 07:09:51;;;;;;;4.80;4.30;;;26.10;99.90;;;;;;5144038;28;20550;-58
2023/06/22 07:12:18;;;;;;;7.13;4.33;;;;;;;;;;5126845;28;20445;-58
2023/06/22 07:14:45;;;;;;;6.50;4.60;;;;;;;;;;5129857;28;20957;-58
2023/06/22 07:17:12;;;;;;;5.00;4.50;;;26.40;99.90;;;;;;5135016;28;20472;-53
2023/06/22 07:19:42;;;;;;;5.53;4.07;;;27.20;99.90;;;;;;5129625;28;20585;-56
2023/06/22 07:22:08;;;;;;;5.40;4.60;;;28.50;99.90;;;;;;5135167;28;20444;-57
2023/06/22 07:24:36;;;;;;;5.20;4.37;;;;;;;;;;5125164;28;20468;-52
2023/06/22 07:27:06;;;;;;;4.80;3.60;;;30.90;99.90;;;;;;5130225;28;20467;-56
2023/06/22 07:29:34;;;;;;;3.77;3.47;;;;;;;;;;5128389;28;20448;-56
2023/06/22 07:32:04;;;;;;;3.63;3.33;;;32.60;99.90;;;;;;5126515;28;20505;-56
2023/06/22 07:34:31;;;;;;;3.93;3.53;;;;;;;;;;5130749;28;20464;-57
2023/06/22 07:36:58;;;;;;;3.43;3.13;;;32.40;99.90;;;;;;5127216;28;20449;-55
2023/06/22 07:39:26;;;;;;;4.53;4.13;;;;;;;;;;5138129;28;20451;-53
2023/06/22 07:41:53;;;;;;;5.50;3.27;;;32.00;99.90;;;;;;5143220;28;20803;-57
2023/06/22 07:44:21;;;;;;;4.23;2.73;;;31.70;99.40;;;;;;5126927;28;20468;-54
2023/06/22 07:46:49;;;;;;;6.63;5.00;;;;;;;;;;5129213;28;20484;-54
2023/06/22 07:49:16;;;;;;;9.63;6.13;;;30.60;99.90;;;;;;5130692;28;20471;-56
2023/06/22 07:51:43;;;;;;;7.70;3.37;;;;;;;;;;5132308;28;20443;-56
2023/06/22 07:54:11;;;;;;;5.37;3.60;;;;;;;;;;5125539;28;20525;-57
2023/06/22 07:56:38;;;;;;;4.20;2.83;;;;;;;;;;5124638;28;20436;-54
2023/06/22 07:59:05;;;;;;;5.17;3.40;;;;;;;;;;5125136;28;20468;-56
2023/06/22 08:01:34;;;;;;;4.33;3.10;;;29.80;85.10;;;;;;5133990;27;20447;-56
2023/06/22 08:04:01;;;;;;;3.90;2.90;;;29.40;99.90;;;;;;5151200;27;21050;-57
2023/06/22 08:06:28;;;;;;;5.53;3.20;;;;;;;;;;5132113;28;20476;-55
2023/06/22 08:08:56;;;;;;;3.57;2.60;;;;;;;;;;5124279;28;20468;-57
2023/06/22 08:11:25;;;;;;;6.17;3.13;;;28.50;99.90;;;;;;5125460;28;20746;-55
2023/06/22 08:13:52;;;;;;;5.10;3.40;;;28.50;99.90;;;;;;5129219;28;20433;-52
2023/06/22 08:16:19;;;;;;;6.03;2.90;;;;;;;;;;5124038;28;20465;-55
2023/06/22 08:18:48;;;;;;;3.53;3.23;;;28.20;90.70;;;;;;5124659;28;20509;-53
2023/06/22 08:21:15;;;;;;;5.13;3.00;;;27.80;99.90;;;;;;5125563;28;20939;-53
2023/06/22 08:23:42;;;;;;;3.70;3.20;;;27.80;99.90;;;;;;5128155;28;20451;-53
2023/06/22 08:26:10;;;;;;;3.40;3.10;;;28.60;99.90;;;;;;5134337;28;20485;-56
2023/06/22 08:28:38;;;;;;;6.13;3.27;;;28.10;99.90;;;;;;5126644;27;20965;-52
2023/06/22 08:31:05;;;;;;;5.37;3.00;;;27.80;99.90;;;;;;5131500;27;20432;-51
2023/06/22 08:33:32;;;;;;;3.50;3.20;;;28.00;99.90;;;;;;5152590;27;20463;-54
2023/06/22 08:36:00;;;;;;;4.97;3.87;;;28.00;99.90;;;;;;5127412;27;20452;-53
2023/06/22 08:38:27;;;;;;;5.13;3.73;;;27.80;99.90;;;;;;5125309;28;20519;-53
2023/06/22 08:40:54;;;;;;;6.70;3.27;;;28.20;99.90;;;;;;5128924;27;20436;-57
2023/06/22 08:43:21;;;;;;;4.20;3.80;;;28.00;99.90;;;;;;5131024;28;20486;-57
2023/06/22 08:45:48;;;;;;;4.27;3.47;;;28.10;99.90;;;;;;5125015;28;20472;-60
2023/06/22 08:48:15;;;;;;;4.17;3.77;;;28.20;99.90;;;;;;5125551;28;20463;-55
2023/06/22 08:50:42;;;;;;;4.83;4.33;;;;;;;;;;5129951;28;20465;-56
2023/06/22 08:53:11;;;;;;;5.13;3.80;;;;;;;;;;5123710;27;20471;-54
2023/06/22 08:55:41;;;;;;;3.77;3.10;;;28.80;99.90;;;;;;5148056;27;20472;-57
2023/06/22 08:58:08;;;;;;;3.00;2.77;;;29.10;99.90;;;;;;5154691;27;20446;-57
2023/06/22 09:00:35;;;;;;;5.13;3.60;;;;;;;;;;5155107;27;20448;-54
2023/06/22 09:03:03;;;;;;;4.40;3.90;;;;;;;;;;5149441;27;20439;-55
2023/06/22 09:05:30;;;;;;;7.10;3.67;;;30.50;99.90;;;;;;5155747;27;20503;-54
2023/06/22 09:07:58;;;;;;;4.50;3.53;;;30.60;99.90;;;;;;5155417;27;20448;-56
2023/06/22 09:10:27;;;;;;;6.00;3.63;;;31.00;83.20;;;;;;5153719;27;20408;-54
2023/06/22 09:12:54;;;;;;;4.50;3.70;;;31.30;99.90;;;;;;5154813;27;20494;-58
2023/06/22 09:15:21;;;;;;;2.90;2.60;;;31.10;99.30;;;;;;5155414;27;20450;-58
2023/06/22 09:17:48;;;;;;;3.87;3.57;;;31.30;99.90;;;;;;5154628;27;20431;-56
2023/06/22 09:20:16;;;;;;;4.63;2.70;;;31.00;99.70;;;;;;5150421;27;20439;-57
2023/06/22 09:22:43;;;;;;;3.80;3.40;;;31.60;99.90;;;;;;5144134;27;20786;-57
2023/06/22 09:25:10;;;;;;;3.83;3.13;;;31.40;74.30;;;;;;5142956;27;20435;-55
2023/06/22 09:27:39;;;;;;;6.20;3.20;;;31.20;95.10;;;;;;5125175;28;20436;-58
2023/06/22 09:30:07;;;;;;;4.13;3.30;;;31.90;99.90;;;;;;5125219;27;20467;-55
2023/06/22 09:32:34;;;;;;;3.40;3.10;;;;;;;;;;5146938;27;20536;-56
2023/06/22 09:35:06;;;;;;;4.07;3.33;;;31.50;95.80;;;;;;5143753;27;20473;-57
2023/06/22 09:37:33;;;;;;;5.37;3.00;;;31.70;97.40;;;;;;5144107;27;20427;-56
2023/06/22 09:40:00;;;;;;;7.13;2.97;;;31.50;94.30;;;;;;5144742;27;20499;-57
2023/06/22 09:42:27;;;;;;;3.20;2.90;;;31.00;98.10;;;;;;5136690;27;20439;-55
2023/06/22 09:44:55;;;;;;;3.30;2.93;;;30.90;95.10;;;;;;5139781;27;20458;-58
2023/06/22 09:47:22;;;;;;;4.77;3.33;;;;;;;;;;5150796;27;20491;-58
2023/06/22 09:49:49;;;;;;;3.90;2.70;;;;;;;;;;5142592;27;20480;-58
2023/06/22 09:52:17;;;;;;;3.43;2.90;;;30.70;97.00;;;;;;5132441;28;20481;-58
2023/06/22 09:54:44;;;;;;;5.00;3.57;;;30.40;97.80;;;;;;5134569;28;20451;-58
2023/06/22 09:57:11;;;;;;;4.00;3.30;;;;;;;;;;5131795;28;20468;-58
2023/06/22 09:59:39;;;;;;;4.20;3.67;;;;;;;;;;5131342;28;20452;-59
2023/06/22 10:02:10;;;;;;;3.53;3.23;;;31.10;95.00;;;;;;5144666;27;21006;-58
2023/06/22 10:04:37;;;;;;;4.27;2.93;;;31.20;98.20;;;;;;5136926;27;20447;-59
2023/06/22 10:07:04;;;;;;;5.13;3.80;;;31.10;78.00;;;;;;5148693;27;20521;-59
2023/06/22 10:09:34;;;;;;;6.10;3.73;;;31.30;69.50;;;;;;5125893;27;20462;-58
2023/06/22 10:12:02;;;;;;;5.33;3.63;;;;;;;;;;5123416;28;20516;-60
2023/06/22 10:14:29;;;;;;;3.60;3.27;;;;;;;;;;5126472;27;20447;-59
2023/06/22 10:16:56;;;;;;;4.10;3.70;;;;;;;;;;5123799;27;20444;-59
2023/06/22 10:19:25;;;;;;;5.47;3.97;;;32.10;94.50;;;;;;5116012;28;20437;-59
2023/06/22 10:21:52;;;;;;;9.43;6.63;;;32.30;94.90;;;;;;5117003;28;20493;-58
2023/06/22 10:24:19;;;;;;;5.00;4.50;;;;;;;;;;5122459;27;20458;-57
2023/06/22 10:26:46;;;;;;;4.07;3.67;;;;;;;;;;5134563;27;20938;-59
2023/06/22 10:29:14;;;;;;;3.83;3.40;;;33.30;82.20;;;;;;5142866;27;20465;-59
2023/06/22 10:31:41;;;;;;;4.20;3.73;;;;;;;;;;5136755;27;20447;-59
2023/06/22 10:34:08;;;;;;;5.57;3.90;;;33.40;91.50;;;;;;5125668;28;20471;-58
2023/06/22 10:36:37;;;;;;;3.30;3.00;;;;;;;;;;5138444;27;20432;-59
2023/06/22 10:39:07;;;;;;;3.50;2.97;;;33.50;90.40;;;;;;5145380;27;20503;-60
2023/06/22 10:41:34;;;;;;;4.80;3.53;;;;;;;;;;5146611;27;20447;-57
2023/06/22 10:44:02;;;;;;;9.10;4.03;;;;;;;;;;5124860;28;20475;-58
2023/06/22 10:46:29;;;;;;;4.27;3.87;;;33.10;95.30;;;;;;5127373;28;20484;-58
2023/06/22 10:48:58;;;;;;;4.53;3.83;;;33.30;91.50;;;;;;5123437;28;20468;-56
2023/06/22 10:51:25;;;;;;;3.60;3.30;;;33.30;90.80;;;;;;5115346;28;20444;-57
2023/06/22 10:53:53;;;;;;;4.50;3.37;;;33.10;63.00;;;;;;5123316;28;20531;-57
2023/06/22 10:56:20;;;;;;;4.97;3.83;;;33.00;96.30;;;;;;5129869;28;20861;-57
2023/06/22 10:58:47;;;;;;;4.93;3.27;;;32.80;95.50;;;;;;5129464;28;20444;-56
2023/06/22 11:01:14;;;;;;;4.07;3.77;;;33.00;93.10;;;;;;5133785;28;20921;-56
2023/06/22 11:03:41;;;;;;;9.83;3.60;;;;;;;;;;5132464;28;20971;-58
2023/06/22 11:06:08;;;;;;;4.27;3.60;;;33.10;95.80;;;;;;5124818;28;20471;-57
2023/06/22 11:08:35;;;;;;;3.77;3.47;;;;;;;;;;5132214;28;20580;-59
2023/06/22 11:11:04;;;;;;;3.20;2.90;;;33.30;61.80;;;;;;5137076;28;20499;-56
2023/06/22 11:13:30;;;;;;;4.60;3.73;;;32.60;91.70;;;;;;5130705;28;20451;-57
2023/06/22 11:15:57;;;;;;;3.90;3.43;;;32.20;91.70;;;;;;5137704;28;20503;-56
2023/06/22 11:18:24;;;;;;;8.57;4.67;;;;;;;;;;5128670;28;20515;-58
2023/06/22 11:20:55;;;;;;;4.20;3.80;;;32.00;90.90;;;;;;5130074;28;20501;-59
2023/06/22 11:23:21;;;;;;;3.87;3.47;;;32.40;91.10;;;;;;5141069;27;20508;-59
2023/06/22 11:25:49;;;;;;;4.03;3.50;;;;;;;;;;5143506;27;20464;-58
2023/06/22 11:28:17;;;;;;;5.33;3.50;;;32.40;91.00;;;;;;5135036;28;20440;-58
2023/06/22 11:30:44;;;;;;;5.17;3.33;;;;;;;;;;5139689;27;20456;-59
2023/06/22 11:33:11;;;;;;;3.50;3.20;;;;;;;;;;5149717;27;20428;-59
2023/06/22 11:35:39;;;;;;;5.23;3.47;;;;;;;;;;5133052;27;20455;-59
2023/06/22 11:38:06;;;;;;;4.23;3.67;;;32.70;93.30;;;;;;5140486;27;20425;-58
2023/06/22 11:40:33;;;;;;;3.80;3.50;;;;;;;;;;5126175;27;20449;-57
2023/06/22 11:43:00;;;;;;;3.57;3.23;;;;;;;;;;5124946;28;20462;-61
2023/06/22 11:45:28;;;;;;;4.33;3.23;;;32.50;94.50;;;;;;5135402;27;20544;-58
2023/06/22 11:47:56;;;;;;;3.83;3.53;;;;;;;;;;5127564;27;20468;-58
2023/06/22 11:50:23;;;;;;;4.33;3.53;;;32.40;94.70;;;;;;5132890;27;20463;-58
2023/06/22 11:52:50;;;;;;;4.43;3.03;;;;;;;;;;5133478;27;20448;-58
2023/06/22 11:55:17;;;;;;;9.60;6.13;;;32.50;91.60;;;;;;5151556;27;20480;-59
2023/06/22 11:57:55;;;;;;;4.13;3.40;;;32.40;95.00;;;;;;5152591;27;20467;-57
2023/06/22 12:00:24;;;;;;;15.47;10.40;;;;;;;;;;5142822;27;20488;-57
2023/06/22 12:02:52;;;;;;;5.57;4.70;;;32.00;94.30;;;;;;5143612;27;20515;-58
2023/06/22 12:05:21;;;;;;;4.13;3.73;;;32.50;60.60;;;;;;5152287;27;20443;-59
2023/06/22 12:07:48;;;;;;;3.77;3.37;;;32.50;94.00;;;;;;5132506;27;20555;-59
2023/06/22 12:10:15;;;;;;;4.17;3.77;;;32.70;89.80;;;;;;5133749;27;20468;-58
2023/06/22 12:12:42;;;;;;;5.57;3.60;;;32.60;94.50;;;;;;5135194;27;20492;-61
2023/06/22 12:15:11;;;;;;;5.60;3.73;;;32.50;60.80;;;;;;5145836;27;20475;-59
2023/06/22 12:17:38;;;;;;;5.17;4.37;;;;;;;;;;5142732;27;20551;-61
2023/06/22 12:20:08;;;;;;;4.93;3.83;;;32.30;94.10;;;;;;5130004;27;20455;-60
2023/06/22 12:22:37;;;;;;;4.40;3.40;;;31.60;90.50;;;;;;5135033;27;20452;-59
2023/06/22 12:25:06;;;;;;;4.30;3.60;;;32.10;94.20;;;;;;5145611;27;20491;-60
2023/06/22 12:27:33;;;;;;;4.80;3.90;;;;;;;;;;5149384;27;20487;-60
2023/06/22 12:30:00;;;;;;;5.20;3.90;;;;;;;;;;5133203;27;20436;-60
2023/06/22 12:32:28;;;;;;;5.40;4.90;;;;;;;;;;5140787;27;20968;-59
2023/06/22 12:34:55;;;;;;;4.33;3.93;;;31.40;95.60;;;;;;5130911;28;20429;-55
2023/06/22 12:37:23;;;;;;;4.03;3.57;;;31.60;92.70;;;;;;5131820;28;20496;-59
2023/06/22 12:39:50;;;;;;;5.77;4.90;;;31.70;77.30;;;;;;5153819;27;20444;-60
2023/06/22 12:42:18;;;;;;;6.10;4.27;;;;;;;;;;5145353;27;20455;-59
2023/06/22 12:44:45;;;;;;;4.73;4.23;;;31.20;81.50;;;;;;5142304;27;20440;-54
2023/06/22 12:47:13;;;;;;;7.53;3.73;;;31.50;92.80;;;;;;5153426;27;20479;-59
2023/06/22 12:49:40;;;;;;;5.27;4.73;;;31.10;94.10;;;;;;5135794;27;20457;-60
2023/06/22 12:52:11;;;;;;;4.40;4.00;;;31.30;96.70;;;;;;5132020;27;20485;-59
2023/06/22 12:54:42;;;;;;;8.00;4.23;;;31.00;92.80;;;;;;5136976;27;20482;-60
2023/06/22 12:57:09;;;;;;;3.70;3.40;;;31.20;93.30;;;;;;5145939;27;20432;-61
2023/06/22 12:59:35;;;;;;;4.53;4.00;;;31.30;92.80;;;;;;5150873;27;20463;-61
2023/06/22 13:02:02;;;;;;;4.77;4.27;;;31.20;96.30;;;;;;5136943;27;20497;-58
2023/06/22 13:04:29;;;;;;;6.17;5.17;;;31.30;73.70;;;;;;5137422;27;20465;-59
2023/06/22 13:06:56;;;;;;;6.73;5.43;;;31.10;93.10;;;;;;5123117;27;20916;-60
2023/06/22 13:09:23;;;;;;;4.70;4.23;;;31.10;96.20;;;;;;5133106;27;20526;-59
2023/06/22 13:11:52;;;;;;;4.90;4.33;;;31.10;78.30;;;;;;5136472;27;20496;-57
2023/06/22 13:14:19;;;;;;;4.40;3.60;;;31.40;95.70;;;;;;5130562;27;20494;-56